Latest Coastal Weather Observations for Lucinda

IDQ60701

Issued at 10:22 pm EST Saturday 25 June 2016 (issued every 10 minutes, with the page automatically refreshed every 10 minutes)

About coastal observations | Map of coastal stations | Coastal observations for QLD | Marine services | Other Formats
Station Details ID: 032141 Name: LUCINDA POINT Lat: -18.52 Lon: 146.39 Height: 10.0 m
Data from the previous 72 hours. | See also: Recent months at Lucinda
Date/Time
EST
Temp
°C
Wind Pressure Rain since
9am
mm
Weather Cloud Vis
km
Sea
Height
m
Swell
Dir  Spd
kts
Gust
kts
hPa Trend Height
m
Period
s
Dir
25/10:00pm 23.5 ESE 8 13 1016.5 - 0.0 - - - - - - -
25/09:30pm 23.5 ESE 9 14 1016.5 - 0.0 - - - - - - -
25/09:00pm 23.6 ESE 9 14 1016.4 - 0.0 - - - - - - -
25/08:30pm 23.5 ESE 10 15 1016.3 - 0.0 - - - - - - -
25/08:00pm 23.6 ESE 11 16 1016.2 - 0.0 - - - - - - -
25/07:30pm 23.6 E 8 15 1016.1 - 0.0 - - - - - - -
25/07:00pm 23.5 ESE 8 13 1015.9 - 0.0 - - - - - - -
25/06:30pm 23.4 SE 7 11 1015.7 - 0.0 - - - - - - -
25/06:00pm 23.5 SE 7 13 1015.6 - 0.0 - - - - - - -
25/05:30pm 23.5 SE 7 11 1015.4 - 0.0 - - - - - - -
25/05:00pm 23.5 SE 7 11 1015.3 - 0.0 - - - - - - -
25/04:30pm 23.6 ESE 8 13 1015.2 - 0.0 - - - - - - -
25/04:00pm 23.8 SE 8 12 1014.9 - 0.0 - - - - - - -
25/03:30pm 24.3 SE 8 12 1014.7 - 0.0 - - - - - - -
25/03:00pm 24.5 ESE 7 12 1014.7 - 0.0 - - - - - - -
25/02:30pm 25.3 SE 7 11 1014.9 - 0.0 - - - - - - -
25/02:00pm 24.5 S 8 10 1015.1 - 0.0 - - - - - - -
25/01:30pm 24.1 S 10 12 1015.5 - 0.0 - - - - - - -
25/01:00pm 24.0 S 11 13 1015.9 - 0.0 - - - - - - -
25/12:30pm 24.0 S 12 14 1016.5 - 0.0 - - - - - - -
25/12:00pm 23.8 S 14 17 1016.9 - 0.0 - - - - - - -
25/11:30am 23.7 S 16 17 1017.3 - 0.0 - - - - - - -
25/11:00am 23.6 S 16 19 1017.4 - 0.0 - - - - - - -
25/10:30am 23.8 S 15 17 1017.4 - 0.0 - - - - - - -
25/10:00am 23.8 S 14 17 1017.2 - 0.0 - - - - - - -
25/09:30am 23.5 SSW 10 15 1017.3 - 0.0 - - - - - - -
25/09:00am 23.0 SW 9 11 1017.2 - 0.2 - - - - - - -
25/08:30am 22.7 SW 10 11 1016.8 - 0.2 - - - - - - -
25/08:00am 22.7 SW 11 12 1016.5 - 0.2 - - - - - - -
25/07:30am 22.5 SSW 9 11 1016.2 - 0.2 - - - - - - -
25/07:00am 22.6 SW 9 11 1015.9 - 0.2 - - - - - - -
25/06:30am 22.4 SW 9 10 1015.5 - 0.2 - - - - - - -
25/06:00am 23.2 SSW 10 12 1015.2 - 0.2 - - - - - - -
25/05:30am 24.6 S 13 15 1015.1 - 0.2 - - - - - - -
25/05:00am 24.2 SSW 12 14 1014.8 - 0.2 - - - - - - -
25/04:30am 24.8 S 15 19 1014.4 - 0.2 - - - - - - -
25/04:00am 23.7 SSW 10 14 1014.3 - 0.2 - - - - - - -
25/03:30am 23.0 SW 10 12 1014.3 - 0.2 - - - - - - -
25/03:00am 22.8 SW 9 10 1014.4 - 0.2 - - - - - - -
25/02:30am 22.9 SW 8 10 1014.3 - 0.2 - - - - - - -
25/02:00am 23.2 WSW 7 8 1014.5 - 0.2 - - - - - - -
25/01:30am 23.6 SW 6 8 1014.6 - 0.2 - - - - - - -
25/01:00am 24.7 S 7 8 1014.6 - 0.2 - - - - - - -
25/12:30am 24.7 S 6 8 1014.8 - 0.2 - - - - - - -
25/12:00am 24.4 CALM 0 0 1015.0 - 0.2 - - - - - - -
 
Date/Time
EST
Temp
°C
Wind Pressure Rain since
9am
mm
Weather Cloud Vis
km
Sea
Height
m
Swell
Dir  Spd
kts
Gust
kts
hPa Trend Height
m
Period
s
Dir
24/11:30pm 24.3 CALM 0 0 1015.0 - 0.2 - - - - - - -
24/11:00pm 24.4 CALM 0 0 1015.1 - 0.2 - - - - - - -
24/10:30pm 24.6 NNW 4 6 1015.1 - 0.2 - - - - - - -
24/10:00pm 24.7 N 5 6 1014.9 - 0.2 - - - - - - -
24/09:30pm 24.8 N 6 7 1014.9 - 0.2 - - - - - - -
24/09:00pm 24.8 N 7 8 1014.7 - 0.2 - - - - - - -
24/08:30pm 24.9 N 8 9 1014.5 - 0.2 - - - - - - -
24/08:00pm 25.0 N 9 11 1014.4 - 0.2 - - - - - - -
24/07:30pm 25.0 N 9 11 1014.0 - 0.2 - - - - - - -
24/07:00pm 25.1 N 8 10 1013.6 - 0.2 - - - - - - -
24/06:30pm 25.1 NNE 8 10 1013.2 - 0.2 - - - - - - -
24/06:00pm 25.1 NNE 11 13 1012.7 - 0.2 - - - - - - -
24/05:30pm 25.3 NNE 11 13 1012.6 - 0.2 - - - - - - -
24/05:00pm 25.2 NE 11 12 1012.5 - 0.2 - - - - - - -
24/04:30pm 25.3 NE 10 11 1012.3 - 0.2 - - - - - - -
24/04:00pm 25.3 ENE 10 11 1012.0 - 0.2 - - - - - - -
24/03:30pm 25.8 E 7 8 1012.1 - 0.2 - - - - - - -
24/03:00pm 25.8 ENE 7 9 1011.9 - 0.2 - - - - - - -
24/02:30pm 25.3 NE 9 11 1011.9 - 0.2 - - - - - - -
24/02:00pm 26.1 E 6 7 1012.3 - 0.2 - - - - - - -
24/01:30pm 25.9 ENE 6 8 1012.6 - 0.2 - - - - - - -
24/01:00pm 27.6 SE 4 6 1013.2 - 0.2 - - - - - - -
24/12:30pm 27.1 SE 4 6 1013.7 - 0.2 - - - - - - -
24/12:00pm 25.6 S 4 5 1014.2 - 0.0 - - - - - - -
24/11:30am 26.4 ESE 4 5 1014.5 - 0.0 - - - - - - -
24/11:00am 24.8 S 6 8 1015.1 - 0.0 - - - - - - -
24/10:30am 24.7 S 7 8 1015.4 - 0.0 - - - - - - -
24/10:00am 24.7 S 7 8 1015.5 - 0.0 - - - - - - -
24/09:30am 24.0 SSW 5 6 1015.4 - 0.0 - - - - - - -
24/09:00am 23.6 SW 6 7 1015.2 - 2.2 - - - - - - -
24/08:30am 23.3 SW 7 7 1014.8 - 2.2 - - - - - - -
24/08:00am 23.1 SW 6 7 1014.4 - 2.2 - - - - - - -
24/07:30am 23.3 SW 8 8 1014.0 - 2.2 - - - - - - -
24/07:00am 23.3 SW 7 8 1013.5 - 2.2 - - - - - - -
24/06:30am 23.3 WSW 5 6 1013.1 - 2.2 - - - - - - -
24/06:00am 23.3 WSW 5 6 1012.7 - 2.2 - - - - - - -
24/05:30am 23.5 SW 5 5 1012.7 - 2.2 - - - - - - -
24/05:00am 23.6 SW 6 7 1012.8 - 2.2 - - - - - - -
24/04:30am 23.4 SW 8 9 1012.8 - 2.2 - - - - - - -
24/04:00am 23.4 WSW 7 8 1012.8 - 2.2 - - - - - - -
24/03:30am 23.8 SSW 4 6 1012.7 - 2.2 - - - - - - -
24/03:00am 23.6 SW 6 7 1012.8 - 2.2 - - - - - - -
24/02:30am 23.6 SW 8 8 1012.9 - 2.2 - - - - - - -
24/02:00am 23.6 WSW 6 7 1013.0 - 2.2 - - - - - - -
24/01:30am 23.8 SW 5 6 1013.3 - 2.2 - - - - - - -
24/01:00am 23.8 SW 5 6 1013.4 - 2.2 - - - - - - -
24/12:30am 23.8 WSW 6 6 1013.5 - 2.2 - - - - - - -
24/12:00am 24.3 CALM 0 3 1013.6 - 2.2 - - - - - - -
 
Date/Time
EST
Temp
°C
Wind Pressure Rain since
9am
mm
Weather Cloud Vis
km
Sea
Height
m
Swell
Dir  Spd
kts
Gust
kts
hPa Trend Height
m
Period
s
Dir
23/11:30pm 24.4 S 1 4 1013.8 - 2.2 - - - - - - -
23/11:00pm 24.3 SSW 5 6 1013.9 - 2.2 - - - - - - -
23/10:30pm 24.3 SW 5 6 1013.8 - 2.2 - - - - - - -
23/10:00pm 24.3 WNW 5 8 1013.7 - 1.6 - - - - - - -
23/09:30pm 24.5 SE 3 6 1013.6 - 0.8 - - - - - - -
23/09:00pm 24.6 ESE 4 5 1013.4 - 0.0 - - - - - - -
23/08:30pm 24.6 SE 5 9 1013.2 - 0.0 - - - - - - -
23/08:00pm 24.6 SE 4 7 1013.2 - 0.0 - - - - - - -
23/07:30pm 24.6 E 6 8 1012.7 - 0.0 - - - - - - -
23/07:00pm 24.5 ESE 6 7 1012.7 - 0.0 - - - - - - -
23/06:30pm 24.4 E 6 8 1012.4 - 0.0 - - - - - - -
23/06:00pm 24.3 ENE 7 10 1012.1 - 0.0 - - - - - - -
23/05:30pm 24.2 E 8 9 1011.8 - 0.0 - - - - - - -
23/05:00pm 24.4 ESE 9 11 1011.7 - 0.0 - - - - - - -
23/04:30pm 24.7 ESE 9 11 1011.3 - 0.0 - - - - - - -
23/04:00pm 25.1 ESE 9 12 1011.1 - 0.0 - - - - - - -
23/03:30pm 24.7 E 9 12 1010.9 - 0.0 - - - - - - -
23/03:00pm 25.0 ESE 8 11 1011.2 - 0.0 - - - - - - -
23/02:30pm 26.4 S 4 7 1011.3 - 0.0 - - - - - - -
23/02:00pm 26.4 SSE 5 8 1011.6 - 0.0 - - - - - - -
23/01:30pm 27.1 E 4 6 1012.1 - 0.0 - - - - - - -
23/01:00pm 27.0 SE 4 6 1012.7 - 0.0 - - - - - - -
23/12:30pm 26.8 ESE 4 6 1013.2 - 0.0 - - - - - - -
23/12:00pm 25.7 ESE 6 8 1013.6 - 0.0 - - - - - - -
23/11:30am 25.7 SSE 5 7 1014.0 - 0.0 - - - - - - -
23/11:00am 24.4 S 8 10 1014.2 - 0.0 - - - - - - -
23/10:30am 24.3 S 8 9 1014.5 - 0.0 - - - - - - -
23/10:00am 23.6 SSW 4 5 1014.5 - 0.0 - - - - - - -
23/09:30am 23.5 SSW 4 5 1014.7 - 0.0 - - - - - - -
23/09:00am 23.2 SW 4 5 1014.7 - 0.0 - - - - - - -
23/08:30am 23.2 SW 6 6 1014.4 - 0.0 - - - - - - -
23/08:00am 22.9 SW 6 6 1014.1 - 0.0 - - - - - - -
23/07:30am 22.7 WSW 6 6 1013.9 - 0.0 - - - - - - -
23/07:00am 22.8 SW 6 6 1013.7 - 0.0 - - - - - - -
23/06:30am 22.7 SSW 8 9 1013.2 - 0.0 - - - - - - -
23/06:00am 22.6 SSW 8 9 1013.0 - 0.0 - - - - - - -
23/05:30am 22.4 SW 6 6 1012.8 - 0.0 - - - - - - -
23/05:00am 22.3 SW 5 6 1012.6 - 0.0 - - - - - - -
23/04:30am 22.1 SW 8 10 1012.8 - 0.0 - - - - - - -
23/04:00am 22.3 SW 10 11 1012.7 - 0.0 - - - - - - -
23/03:30am 22.7 SW 8 9 1012.8 - 0.0 - - - - - - -
23/03:00am 22.6 SW 7 8 1013.0 - 0.0 - - - - - - -
23/02:30am 22.5 SW 8 8 1013.0 - 0.0 - - - - - - -
23/02:00am 22.2 SW 8 9 1013.2 - 0.0 - - - - - - -
23/01:30am 22.6 SW 6 7 1013.5 - 0.0 - - - - - - -
23/01:00am 22.8 WSW 6 7 1013.5 - 0.0 - - - - - - -
23/12:30am 23.1 WNW 6 7 1013.7 - 0.0 - - - - - - -
23/12:00am 23.8 NNW 5 6 1013.7 - 0.0 - - - - - - -
 
Date/Time
EST
Temp
°C
Wind Pressure Rain since
9am
mm
Weather Cloud Vis
km
Sea
Height
m
Swell
Dir  Spd
kts
Gust
kts
hPa Trend Height
m
Period
s
Dir
22/11:30pm 23.6 NNW 4 5 1013.8 - 0.0 - - - - - - -
22/11:00pm 23.7 NW 5 7 1013.9 - 0.0 - - - - - - -
22/10:30pm 24.2 N 7 8 1014.1 - 0.0 - - - - - - -

Other Formats:

Comma delimited format used in spreadsheet applications
http://www.bom.gov.au/fwo/IDQ60701/IDQ60701.94295.axf

JavaScript Object Notation format (JSON) in row-major order
http://www.bom.gov.au/fwo/IDQ60701/IDQ60701.94295.json